Skyland, Colorado
Current Conditions -  °F | °C
As of 10:57 AM on Thursday 18 Dec 2014 (Local Time) from KASE Reporting Station
Broken Clouds Broken Clouds  
Wind Chill: 29°   Ceiling: 6500
Heat Index: 29°   Visibility: 10mi
Dew Point: 21°   Wind: 3mph
Humidity: 72%   Direction: 310°NW
Pressure: 30.09"   Gusts: NA
Location:  38.8977°N, 106.967°W
Report Text: KASE 181757Z 31003KT 10SM FEW025 SCT032 BKN065 M02/M06 A3009 RMK AO2 T10171061
Loading
Personal Weather Stations






























Interactive Weather Map New forecast layout! Learn more

10-Day Weather Forecast

Advertisements
Track Severe Weather on mobile